This is the latest recevied weather packets stored in our database for station/object XE3JAR. If no packets are shown the sender has not sent any weather packets the latest 10 day(s).
| Time | Temp. | Humidity | Pressure | Rain* | Wind** | Luminosity | Snow |
|---|---|---|---|---|---|---|---|
| 1777763685 | 33.89° C | 66% | 1015.2 hPa | - | - | - | - |
| 1777762775 | 33.89° C | 65% | 1014.9 hPa | - | - | - | - |
| 1777762150 | 35° C | 63% | 1014.9 hPa | - | - | - | - |
| 1777760329 | 37.22° C | 61% | 1014.6 hPa | - | - | - | - |
| 1777754821 | 41.11° C | 48% | 1014.9 hPa | - | - | - | - |
| 1777752086 | 43.89° C | 41% | 1014.9 hPa | - | - | - | - |
| 1777751434 | 43.89° C | 40% | 1015.2 hPa | - | - | - | - |
| 1777751128 | 42.78° C | 41% | 1015.2 hPa | - | - | - | - |
| 1777749914 | 43.89° C | 41% | 1015.6 hPa | - | - | - | - |
| 1777749014 | 42.78° C | 41% | 1015.6 hPa | - | - | - | - |
| 1777748386 | 42.78° C | 41% | 1015.9 hPa | - | - | - | - |
| 1777747800 | 42.22° C | 41% | 1015.9 hPa | - | - | - | - |
| 1777746864 | 42.78° C | 42% | 1015.9 hPa | - | - | - | - |
| 1777744748 | 42.22° C | 44% | 1016.3 hPa | - | - | - | - |
| 1777743524 | 42.22° C | 45% | 1016.3 hPa | - | - | - | - |
| 1777743222 | 41.11° C | 46% | 1016.3 hPa | - | - | - | - |
| 1777742913 | 42.22° C | 44% | 1016.3 hPa | - | - | - | - |
| 1777742611 | 42.78° C | 45% | 1016.6 hPa | - | - | - | - |
| 1777740765 | 41.11° C | 48% | 1016.6 hPa | - | - | - | - |
| 1777737729 | 42.22° C | 44% | 1016.6 hPa | - | - | - | - |
| 1777737429 | 42.22° C | 44% | 1016.6 hPa | - | - | - | - |
| 1777734988 | 41.11° C | 46% | 1016.3 hPa | - | - | - | - |
| 1777734410 | 38.89° C | 47% | 1016.3 hPa | - | - | - | - |
| 1777733780 | 38.89° C | 47% | 1015.9 hPa | - | - | - | - |
| 1777727357 | 32.22° C | 59% | 1014.6 hPa | - | - | - | - |
* Rain since midnight (hover to see other rain measurements)
** Current wind speed in m/s (hover to see current wind gust speed)